地図

経路データ

SID SEASON NUMBER BASIN SUBBASIN NAME ISO_TIME NATURE LAT LON WMO_WIND WMO_PRES WMO_AGENCY TRACK_TYPE DIST2LAND LANDFALL IFLAG USA_AGENCY USA_ATCF_ID USA_LAT USA_LON USA_RECORD USA_STATUS USA_WIND USA_PRES USA_SSHS USA_R34_NE USA_R34_SE USA_R34_SW USA_R34_NW USA_R50_NE USA_R50_SE USA_R50_SW USA_R50_NW USA_R64_NE USA_R64_SE USA_R64_SW USA_R64_NW USA_POCI USA_ROCI USA_RMW USA_EYE TOKYO_LAT TOKYO_LON TOKYO_GRADE TOKYO_WIND TOKYO_PRES TOKYO_R50_DIR TOKYO_R50_LONG TOKYO_R50_SHORT TOKYO_R30_DIR TOKYO_R30_LONG TOKYO_R30_SHORT TOKYO_LAND CMA_LAT CMA_LON CMA_CAT CMA_WIND CMA_PRES HKO_LAT HKO_LON HKO_CAT HKO_WIND HKO_PRES NEWDELHI_LAT NEWDELHI_LON NEWDELHI_GRADE NEWDELHI_WIND NEWDELHI_PRES NEWDELHI_CI NEWDELHI_DP NEWDELHI_POCI REUNION_LAT REUNION_LON REUNION_TYPE REUNION_WIND REUNION_PRES REUNION_TNUM REUNION_CI REUNION_RMW REUNION_R34_NE REUNION_R34_SE REUNION_R34_SW REUNION_R34_NW REUNION_R50_NE REUNION_R50_SE REUNION_R50_SW REUNION_R50_NW REUNION_R64_NE REUNION_R64_SE REUNION_R64_SW REUNION_R64_NW BOM_LAT BOM_LON BOM_TYPE BOM_WIND BOM_PRES BOM_TNUM BOM_CI BOM_RMW BOM_R34_NE BOM_R34_SE BOM_R34_SW BOM_R34_NW BOM_R50_NE BOM_R50_SE BOM_R50_SW BOM_R50_NW BOM_R64_NE BOM_R64_SE BOM_R64_SW BOM_R64_NW BOM_ROCI BOM_POCI BOM_EYE BOM_POS_METHOD BOM_PRES_METHOD NADI_LAT NADI_LON NADI_CAT NADI_WIND NADI_PRES WELLINGTON_LAT WELLINGTON_LON WELLINGTON_WIND WELLINGTON_PRES DS824_LAT DS824_LON DS824_STAGE DS824_WIND DS824_PRES TD9636_LAT TD9636_LON TD9636_STAGE TD9636_WIND TD9636_PRES TD9635_LAT TD9635_LON TD9635_WIND TD9635_PRES TD9635_ROCI NEUMANN_LAT NEUMANN_LON NEUMANN_CLASS NEUMANN_WIND NEUMANN_PRES MLC_LAT MLC_LON MLC_CLASS MLC_WIND MLC_PRES USA_GUST BOM_GUST BOM_GUST_PER REUNION_GUST REUNION_GUST_PER USA_SEAHGT USA_SEARAD_NE USA_SEARAD_SE USA_SEARAD_SW USA_SEARAD_NW STORM_SPEED STORM_DIR
1952213N21091 1952 46 NI BB NOT_NAMED 1952-07-30 18:00:00 TS 21.2000 90.7000 main 84 78 O________O____ jtwc_io IO051952 21.2000 90.7000 -1 21.2000 90.7000 TC 2 298
1952213N21091 1952 46 NI BB NOT_NAMED 1952-07-30 21:00:00 TS 21.2375 90.6275 main 78 63 P________P____ IO051952 21.2375 90.6275 -1 21.2375 90.6275 TC 2 299
1952213N21091 1952 46 NI BB NOT_NAMED 1952-07-31 00:00:00 TS 21.3000 90.5000 main 63 45 O________O____ jtwc_io IO051952 21.3000 90.5000 -1 21.3000 90.5000 TC 25 4 297
1952213N21091 1952 46 NI BB NOT_NAMED 1952-07-31 03:00:00 TS 21.4000 90.2823 main 45 33 P________PO___ IO051952 21.4000 90.2801 -1 21.4000 90.2801 TC 25 21.4000 90.3000 1 5 293
1952213N21091 1952 46 NI BB NOT_NAMED 1952-07-31 06:00:00 TS 21.4973 90.0010 main 35 22 O________OP___ jtwc_io IO051952 21.5000 90.0000 -1 21.5000 90.0000 TC 25 21.4864 90.0050 1 6 286
1952213N21091 1952 46 NI BB NOT_NAMED 1952-07-31 09:00:00 TS 21.5604 89.6994 main 22 11 P________PP___ IO051952 21.5576 89.6925 -1 21.5576 89.6925 TC 25 21.5680 89.7179 1 6 282
1952213N21091 1952 46 NI BB NOT_NAMED 1952-07-31 12:00:00 TS 21.6135 89.4156 main 11 0 O________OP___ jtwc_io IO051952 21.6000 89.4000 -1 21.6000 89.4000 TC 25 21.6406 89.4468 1 5 283
1952213N21091 1952 46 NI BB NOT_NAMED 1952-07-31 15:00:00 TS 21.6666 89.1900 main 0 0 P________PO___ IO051952 21.6499 89.1850 -1 21.6499 89.1850 TC 25 21.7000 89.2000 1 4 284
1952213N21091 1952 46 NI BB NOT_NAMED 1952-07-31 18:00:00 TS 21.7144 88.9947 main 0 0 O________OP___ jtwc_io IO051952 21.7000 89.0000 -1 21.7000 89.0000 TC 25 21.7433 88.9839 1 4 284
1952213N21091 1952 46 NI BB NOT_NAMED 1952-07-31 21:00:00 TS 21.7625 88.7891 main 0 0 P________PP___ IO051952 21.7575 88.7850 -1 21.7575 88.7850 TC 25 21.7723 88.7974 1 4 283
1952213N21091 1952 46 NI BB NOT_NAMED 1952-08-01 00:00:00 TS 21.7967 88.6124 main 0 0 O________OP___ jtwc_io IO051952 21.8000 88.6000 -1 21.8000 88.6000 TC 25 21.7902 88.6371 1 3 279
1952213N21091 1952 46 NI BB NOT_NAMED 1952-08-01 03:00:00 TS 21.8050 88.4900 main 0 0 P________PO___ IO051952 21.8075 88.4850 -1 21.8075 88.4850 TC 25 21.8000 88.5000 1 2 272
1952213N21091 1952 46 NI BB NOT_NAMED 1952-08-01 06:00:00 TS 21.8024 88.3942 main 0 0 O________OP___ jtwc_io IO051952 21.8000 88.4000 -1 21.8000 88.4000 TC 25 21.8071 88.3825 1 2 269
1952213N21091 1952 46 NI BB NOT_NAMED 1952-08-01 09:00:00 TS 21.8024 88.2950 main 0 0 P________PP___ IO051952 21.8000 88.3000 -1 21.8000 88.3000 TC 25 21.8073 88.2850 1 2 270
1952213N21091 1952 46 NI BB NOT_NAMED 1952-08-01 12:00:00 TS 21.8013 88.1983 main 0 0 O________OP___ jtwc_io IO051952 21.8000 88.2000 -1 21.8000 88.2000 TC 25 21.8040 88.1950 1 2 269
1952213N21091 1952 46 NI BB NOT_NAMED 1952-08-01 15:00:00 TS 21.8000 88.1000 main 10 10 P________PO___ IO051952 21.8000 88.1000 -1 21.8000 88.1000 TC 25 21.8000 88.1000 1 2 270
1952213N21091 1952 46 NI BB NOT_NAMED 1952-08-01 18:00:00 TS 21.8012 88.0090 main 10 0 O________OP___ jtwc_io IO051952 21.8000 88.0000 -1 21.8000 88.0000 TC 25 21.8037 88.0269 1 2 271
1952213N21091 1952 46 NI BB NOT_NAMED 1952-08-01 21:00:00 TS 21.8022 87.9284 main 0 0 P________PP___ IO051952 21.7999 87.9225 -1 21.7999 87.9225 TC 25 21.8068 87.9401 1 2 270
1952213N21091 1952 46 NI BB NOT_NAMED 1952-08-02 00:00:00 TS 21.8022 87.8027 main 0 0 O________OP___ jtwc_io IO051952 21.8000 87.8000 -1 21.8000 87.8000 TC 25 21.8066 87.8082 1 3 271
1952213N21091 1952 46 NI BB NOT_NAMED 1952-08-02 03:00:00 TS 21.8049 87.6017 main 0 0 P________PO___ IO051952 21.8074 87.6026 -1 21.8074 87.6026 TC 25 21.8000 87.6000 1 5 269
1952213N21091 1952 46 NI BB NOT_NAMED 1952-08-02 06:00:00 TS 21.7915 87.2943 main 0 0 O________OP___ jtwc_io IO051952 21.8000 87.3000 -1 21.8000 87.3000 TC 25 21.7744 87.2829 1 7 265
1952213N21091 1952 46 NI BB NOT_NAMED 1952-08-02 09:00:00 TS 21.7477 86.8781 main 0 0 P________PP___ IO051952 21.7501 86.8724 -1 21.7501 86.8724 TC 25 21.7429 86.8896 1 8 264
1952213N21091 1952 46 NI BB NOT_NAMED 1952-08-02 12:00:00 TS 21.7050 86.4172 main 0 0 O________OP___ jtwc_io IO051952 21.7000 86.4000 -1 21.7000 86.4000 TC 25 21.7149 86.4516 1 8 266
1952213N21091 1952 46 NI BB NOT_NAMED 1952-08-02 15:00:00 TS 21.6949 85.9950 main 0 0 P________PO___ IO051952 21.6923 85.9926 -1 21.6923 85.9926 TC 25 21.7000 86.0000 1 7 269
1952213N21091 1952 46 NI BB NOT_NAMED 1952-08-02 18:00:00 TS 21.6934 85.6181 main 0 0 O________OP___ jtwc_io IO051952 21.7000 85.6000 -1 21.7000 85.6000 TC 25 21.6803 85.6542 1 7 269
1952213N21091 1952 46 NI BB NOT_NAMED 1952-08-02 21:00:00 TS 21.6829 85.2501 main 0 0 P________PP___ IO051952 21.6847 85.2298 -1 21.6847 85.2298 TC 25 21.6794 85.2906 1 7 271
1952213N21091 1952 46 NI BB NOT_NAMED 1952-08-03 00:00:00 TS 21.7046 84.8189 main 0 0 O________OP___ jtwc_io IO051952 21.7000 84.8000 -1 21.7000 84.8000 TC 25 21.7139 84.8568 1 9 276
1952213N21091 1952 46 NI BB NOT_NAMED 1952-08-03 03:00:00 TS 21.7796 84.2881 main 0 0 P________PO___ IO051952 21.7694 84.2822 -1 21.7694 84.2822 TC 25 21.8000 84.3000 1 12 280
1952213N21091 1952 46 NI BB NOT_NAMED 1952-08-03 06:00:00 TS 21.9092 83.5754 main 0 0 O________OP___ jtwc_io IO051952 21.9000 83.6000 -1 21.9000 83.6000 TC 25 21.9276 83.5262 1 15 281
1952213N21091 1952 46 NI BB NOT_NAMED 1952-08-03 09:00:00 TS 22.0824 82.6642 main 0 0 P________PP___ IO051952 22.0706 82.6800 -1 22.0706 82.6800 TC 25 22.1058 82.6325 1 18 283
1952213N21091 1952 46 NI BB NOT_NAMED 1952-08-03 12:00:00 TS 22.3102 81.6992 main 0 0 O________OP___ jtwc_io IO051952 22.3000 81.7000 -1 22.3000 81.7000 TC 25 22.3307 81.6975 1 18 287
1952213N21091 1952 46 NI BB NOT_NAMED 1952-08-03 15:00:00 TS 22.5846 80.8465 main 0 0 P________PO___ IO051952 22.5769 80.8697 -1 22.5769 80.8697 TC 25 22.6000 80.8000 1 16 291
1952213N21091 1952 46 NI BB NOT_NAMED 1952-08-03 18:00:00 TS 22.9046 80.0603 main 0 0 O________OP___ jtwc_io IO051952 22.9000 80.1000 -1 22.9000 80.1000 TC 25 22.9116 80.0007 1 16 295
1952213N21091 1952 46 NI BB NOT_NAMED 1952-08-03 21:00:00 TS 23.2504 79.3223 main 0 0 P________PP___ IO051952 23.2458 79.3483 -1 23.2458 79.3483 TC 25 23.2564 79.2877 1 15 298
1952213N21091 1952 46 NI BB NOT_NAMED 1952-08-04 00:00:00 TS 23.6116 78.6154 main 0 0 O________OP___ jtwc_io IO051952 23.6000 78.6000 -1 23.6000 78.6000 TC 25 23.6232 78.6307 1 14 302
1952213N21091 1952 46 NI AS NOT_NAMED 1952-08-04 03:00:00 NR 24.0000 78.0000 main 0 __________O___ IO051952 -1 TC 24.0000 78.0000 1 14 305

IBTrACS Databaseについて

本データベースは、米国NOAAが公開する1842年以降の世界の熱帯低気圧のベストトラックデータアーカイブInternational Best Track Archive for Climate Stewardship (IBTrACS)を、ウェブで閲覧しやすい形式に変換したものです。

最終更新日:2021-10-21